createdAt,value
2019-02-07T00:01:09.452Z,6.22
2019-02-07T00:03:42.016Z,2.97
2019-02-07T00:06:14.293Z,5.67
2019-02-07T00:08:47.049Z,2.77
2019-02-07T00:11:19.394Z,7.60
2019-02-07T00:13:52.035Z,3.83
2019-02-07T00:18:55.755Z,6.62
2019-02-07T00:21:28.499Z,7.83
2019-02-07T00:24:01.105Z,7.47
2019-02-07T00:26:33.584Z,6.10
2019-02-07T00:29:06.864Z,8.10
2019-02-07T00:31:39.239Z,8.68
2019-02-07T00:34:11.727Z,10.45
2019-02-07T00:36:44.168Z,7.25
2019-02-07T00:39:16.558Z,9.20
2019-02-07T00:41:49.358Z,9.03
2019-02-07T00:44:21.705Z,9.15
2019-02-07T00:46:54.161Z,10.10
2019-02-07T00:49:26.873Z,9.63
2019-02-07T00:51:59.610Z,9.85
2019-02-07T00:54:31.963Z,9.53
2019-02-07T00:57:04.664Z,6.35
2019-02-07T00:59:37.071Z,4.70
2019-02-07T01:02:10.550Z,3.72
2019-02-07T01:04:42.821Z,8.23
2019-02-07T01:07:15.694Z,8.80
2019-02-07T01:09:49.686Z,4.83
2019-02-07T01:12:21.924Z,6.23
2019-02-07T01:15:01.660Z,6.65
2019-02-07T01:17:28.867Z,6.97
2019-02-07T01:20:01.401Z,4.15
2019-02-07T01:22:33.843Z,5.47
2019-02-07T01:25:09.185Z,5.10
2019-02-07T01:27:41.594Z,8.63
2019-02-07T01:30:17.288Z,6.15
2019-02-07T01:32:49.410Z,7.73
2019-02-07T01:35:21.923Z,8.10
2019-02-07T01:37:54.819Z,7.12
2019-02-07T01:40:27.199Z,4.58
2019-02-07T01:42:59.565Z,8.05
2019-02-07T01:45:31.982Z,7.95
2019-02-07T01:48:04.640Z,4.50
2019-02-07T01:50:37.077Z,6.58
2019-02-07T01:53:10.053Z,5.77
2019-02-07T01:58:15.230Z,4.58
2019-02-07T02:00:47.558Z,8.97
2019-02-07T02:03:20.212Z,8.23
2019-02-07T02:05:52.555Z,6.45
2019-02-07T02:08:24.651Z,8.97
2019-02-07T02:10:57.099Z,6.73
2019-02-07T02:13:30.797Z,7.45
2019-02-07T02:16:03.058Z,7.50
2019-02-07T02:18:35.433Z,8.70
2019-02-07T02:21:08.111Z,9.68
2019-02-07T02:23:40.750Z,6.03
2019-02-07T02:26:13.961Z,7.95
2019-02-07T02:28:46.655Z,5.25
2019-02-07T02:31:19.146Z,11.15
2019-02-07T02:33:51.514Z,3.80
2019-02-07T02:36:24.260Z,7.83
2019-02-07T02:38:56.700Z,4.17
2019-02-07T02:41:29.139Z,6.08
2019-02-07T02:44:01.510Z,17.27
2019-02-07T02:46:33.853Z,11.33
2019-02-07T02:49:06.524Z,10.40
2019-02-07T02:51:38.863Z,8.40
2019-02-07T02:54:29.902Z,12.77
2019-02-07T02:57:02.295Z,7.47
2019-02-07T02:59:35.146Z,10.68
2019-02-07T03:02:25.177Z,8.68
2019-02-07T03:05:14.742Z,10.20
2019-02-07T03:08:04.586Z,7.33
2019-02-07T03:10:55.553Z,6.37
2019-02-07T03:14:01.629Z,4.57
2019-02-07T03:17:01.813Z,8.57
2019-02-07T03:19:54.045Z,9.80
2019-02-07T03:22:52.666Z,2.90
2019-02-07T03:25:42.349Z,10.23
2019-02-07T03:28:29.852Z,4.80
2019-02-07T03:31:19.652Z,5.10
2019-02-07T03:34:09.508Z,5.30
2019-02-07T03:36:57.231Z,6.67
2019-02-07T03:39:55.656Z,10.30
2019-02-07T03:42:45.288Z,15.83
2019-02-07T03:45:35.206Z,9.73
2019-02-07T03:48:26.191Z,9.97
2019-02-07T03:51:17.116Z,11.20
2019-02-07T03:54:07.097Z,11.77
2019-02-07T03:56:57.191Z,10.10
2019-02-07T03:59:48.137Z,10.00
2019-02-07T04:02:48.170Z,9.63
2019-02-07T04:05:54.479Z,11.23
2019-02-07T04:08:44.962Z,8.27
2019-02-07T04:11:34.762Z,5.53
2019-02-07T04:14:25.474Z,11.97
2019-02-07T04:17:16.410Z,10.13
2019-02-07T04:20:07.364Z,12.43
2019-02-07T04:22:55.681Z,13.77
2019-02-07T04:26:02.070Z,10.70
2019-02-07T04:28:43.618Z,10.47
2019-02-07T04:31:37.760Z,12.90
2019-02-07T04:34:28.817Z,9.37
2019-02-07T04:37:19.838Z,10.13
2019-02-07T04:40:17.224Z,14.90
2019-02-07T04:43:11.325Z,11.67
2019-02-07T04:45:54.202Z,14.20
2019-02-07T04:48:48.604Z,19.87
2019-02-07T04:51:46.003Z,11.20
2019-02-07T04:54:40.360Z,13.17
2019-02-07T04:57:34.329Z,11.07
2019-02-07T05:00:44.562Z,11.60
2019-02-07T05:03:40.311Z,14.47
2019-02-07T05:06:31.262Z,14.40
2019-02-07T05:09:37.592Z,8.50
2019-02-07T05:12:34.935Z,10.70
2019-02-07T05:15:21.651Z,9.83
2019-02-07T05:18:11.874Z,10.10
2019-02-07T05:21:03.175Z,12.17
2019-02-07T05:24:00.005Z,11.47
2019-02-07T05:27:06.232Z,12.30
2019-02-07T05:29:51.315Z,12.70
2019-02-07T05:32:37.808Z,10.13
2019-02-07T05:35:39.988Z,12.13
2019-02-07T05:38:36.963Z,16.27
2019-02-07T05:41:28.067Z,13.83
2019-02-07T05:44:22.203Z,8.40
2019-02-07T05:47:38.042Z,12.03
2019-02-07T05:50:30.348Z,10.03
2019-02-07T05:53:20.249Z,11.67
2019-02-07T05:56:11.216Z,11.23
2019-02-07T05:59:04.957Z,15.83
2019-02-07T06:01:48.202Z,7.40
2019-02-07T06:04:42.377Z,13.23
2019-02-07T06:07:34.502Z,8.73
2019-02-07T06:10:27.110Z,13.60
2019-02-07T06:13:36.468Z,18.77
2019-02-07T06:16:33.348Z,18.27
2019-02-07T06:19:15.304Z,10.73
2019-02-07T06:22:12.715Z,8.53
2019-02-07T06:25:02.814Z,14.73
2019-02-07T06:27:56.619Z,9.70
2019-02-07T06:30:43.419Z,9.37
2019-02-07T06:33:34.266Z,8.50
2019-02-07T06:36:25.647Z,9.27
2019-02-07T06:39:12.974Z,9.00
2019-02-07T06:42:03.061Z,10.77
2019-02-07T06:45:13.325Z,14.70
2019-02-07T06:48:04.372Z,17.03
2019-02-07T06:50:58.019Z,18.87
2019-02-07T06:53:47.809Z,11.50
2019-02-07T06:56:48.239Z,16.40
2019-02-07T06:59:57.589Z,13.73
2019-02-07T07:02:47.435Z,16.43
2019-02-07T07:05:37.128Z,16.67
2019-02-07T07:08:46.790Z,17.53
2019-02-07T07:11:43.990Z,12.97
2019-02-07T07:14:34.922Z,16.77
2019-02-07T07:17:25.891Z,10.63
2019-02-07T07:20:21.997Z,17.53
2019-02-07T07:23:22.469Z,13.07
2019-02-07T07:26:12.647Z,11.77
2019-02-07T07:29:09.907Z,10.77
2019-02-07T07:32:16.359Z,19.00
2019-02-07T07:35:01.849Z,12.23
2019-02-07T07:37:58.418Z,10.93
2019-02-07T07:41:04.563Z,10.30
2019-02-07T07:43:54.596Z,16.60
2019-02-07T07:46:44.794Z,10.47
2019-02-07T07:49:32.377Z,13.20
2019-02-07T07:52:39.723Z,13.83
2019-02-07T07:55:33.429Z,11.30
2019-02-07T07:58:11.965Z,12.23
2019-02-07T08:01:15.564Z,16.87
2019-02-07T08:04:19.056Z,14.70
2019-02-07T08:07:16.605Z,12.93
2019-02-07T08:10:07.412Z,7.47
2019-02-07T08:12:57.605Z,11.00
2019-02-07T08:15:57.864Z,11.03
2019-02-07T08:18:55.420Z,19.27
2019-02-07T08:21:35.860Z,10.53
2019-02-07T08:24:28.530Z,16.37
2019-02-07T08:27:19.754Z,14.70
2019-02-07T08:30:09.401Z,11.83
2019-02-07T08:32:59.441Z,11.67
2019-02-07T08:35:49.748Z,11.87
2019-02-07T08:38:39.691Z,10.47
2019-02-07T08:41:30.677Z,14.90
2019-02-07T08:44:24.386Z,17.97
2019-02-07T08:47:15.309Z,15.57
2019-02-07T08:50:06.865Z,13.60
2019-02-07T08:53:06.888Z,14.17
2019-02-07T08:56:07.360Z,8.97
2019-02-07T08:59:08.051Z,17.20
2019-02-07T09:02:11.385Z,10.90
2019-02-07T09:05:15.891Z,10.53
2019-02-07T09:08:06.903Z,16.20
2019-02-07T09:11:04.308Z,13.97
2019-02-07T09:14:07.793Z,13.27
2019-02-07T09:17:00.172Z,11.93
2019-02-07T09:19:54.756Z,16.07
2019-02-07T09:22:51.909Z,12.20
2019-02-07T09:25:45.858Z,9.40
2019-02-07T09:28:35.919Z,16.67
2019-02-07T09:31:39.301Z,11.43
2019-02-07T09:34:30.637Z,14.30
2019-02-07T09:37:27.589Z,14.30
2019-02-07T09:40:32.073Z,10.33
2019-02-07T09:43:32.075Z,12.17
2019-02-07T09:46:25.487Z,11.80
2019-02-07T09:49:15.790Z,8.83
2019-02-07T09:51:56.037Z,8.83
2019-02-07T09:54:45.942Z,15.23
2019-02-07T09:57:37.121Z,16.13
2019-02-07T10:00:34.270Z,17.63
2019-02-07T10:03:27.838Z,12.27
2019-02-07T10:06:19.364Z,14.93
2019-02-07T10:09:08.426Z,13.93
2019-02-07T10:12:05.326Z,15.80
2019-02-07T10:14:55.441Z,11.97
2019-02-07T10:18:04.835Z,11.87
2019-02-07T10:20:54.271Z,12.73
2019-02-07T10:23:44.130Z,12.70
2019-02-07T10:26:32.200Z,8.70
2019-02-07T10:29:32.198Z,12.53
2019-02-07T10:32:29.388Z,10.00
2019-02-07T10:35:22.828Z,10.60
2019-02-07T10:38:22.319Z,13.98
2019-02-07T10:41:26.018Z,13.20
2019-02-07T10:44:08.118Z,12.63
2019-02-07T10:46:59.065Z,13.83
2019-02-07T10:49:58.649Z,10.83
2019-02-07T10:52:40.869Z,13.87
2019-02-07T10:55:30.904Z,14.93
2019-02-07T10:58:25.689Z,9.97
2019-02-07T11:01:23.101Z,13.40
2019-02-07T11:04:10.552Z,15.53
2019-02-07T11:06:51.479Z,12.87
2019-02-07T11:09:48.959Z,13.37
2019-02-07T11:12:39.974Z,13.53
2019-02-07T11:15:26.267Z,16.80
2019-02-07T11:18:16.006Z,11.37
2019-02-07T11:21:05.863Z,13.93
2019-02-07T11:24:16.964Z,10.80
2019-02-07T11:27:14.027Z,14.50
2019-02-07T11:30:03.864Z,9.17
2019-02-07T11:32:51.378Z,12.80
2019-02-07T11:35:42.907Z,14.87
2019-02-07T11:38:35.628Z,10.57
2019-02-07T11:41:36.904Z,12.23
2019-02-07T11:44:30.904Z,11.63
2019-02-07T11:47:27.943Z,13.67
2019-02-07T11:50:37.333Z,13.03
2019-02-07T11:53:31.792Z,13.67
2019-02-07T11:56:22.974Z,13.20
2019-02-07T11:59:17.152Z,10.00
2019-02-07T12:02:09.205Z,12.60
2019-02-07T12:05:12.284Z,12.70
2019-02-07T12:07:58.960Z,13.32
2019-02-07T12:11:05.387Z,9.87
2019-02-07T12:13:49.410Z,12.43
2019-02-07T12:16:49.716Z,10.10
2019-02-07T12:19:37.314Z,11.57
2019-02-07T12:22:17.288Z,12.73
2019-02-07T12:25:17.068Z,12.37
2019-02-07T12:28:07.032Z,11.87
2019-02-07T12:30:56.905Z,12.20
2019-02-07T12:34:00.318Z,11.20
2019-02-07T12:36:45.448Z,10.63
2019-02-07T12:39:24.681Z,12.90
2019-02-07T12:42:05.429Z,12.83
2019-02-07T12:45:00.641Z,13.80
2019-02-07T12:48:06.707Z,12.33
2019-02-07T12:51:02.856Z,13.17
2019-02-07T12:53:48.246Z,13.67
2019-02-07T12:56:35.700Z,12.47
2019-02-07T12:59:34.764Z,12.27
2019-02-07T13:02:41.999Z,14.77
2019-02-07T13:05:39.707Z,14.87
2019-02-07T13:08:33.717Z,16.87
2019-02-07T13:11:25.436Z,16.30
2019-02-07T13:14:04.764Z,14.30
2019-02-07T13:16:57.063Z,13.97
2019-02-07T13:19:42.676Z,12.20
2019-02-07T13:22:32.754Z,15.23
2019-02-07T13:25:22.818Z,13.23
2019-02-07T13:28:23.234Z,13.80
2019-02-07T13:31:09.556Z,14.20
2019-02-07T13:34:06.866Z,13.80
2019-02-07T13:36:57.901Z,13.80
2019-02-07T13:39:57.292Z,15.03
2019-02-07T13:42:40.522Z,14.03
2019-02-07T13:48:31.033Z,13.05
2019-02-07T13:51:21.039Z,12.63
2019-02-07T13:54:12.083Z,15.47
2019-02-07T13:57:11.915Z,12.70
2019-02-07T14:00:23.410Z,13.97
2019-02-07T14:03:14.100Z,13.27
2019-02-07T14:06:20.174Z,17.83
2019-02-07T14:09:17.904Z,13.10
2019-02-07T14:12:18.596Z,14.33
2019-02-07T14:15:08.714Z,18.40
2019-02-07T14:18:08.728Z,16.23
2019-02-07T14:21:03.295Z,15.63
2019-02-07T14:23:51.776Z,14.93
2019-02-07T14:26:57.972Z,19.77
2019-02-07T14:29:39.424Z,16.03
2019-02-07T14:32:37.185Z,17.07
2019-02-07T14:35:29.135Z,17.07
2019-02-07T14:38:18.010Z,16.93
2019-02-07T14:41:12.026Z,14.80
2019-02-07T14:44:03.243Z,15.63
2019-02-07T14:46:48.302Z,15.13
2019-02-07T14:49:20.789Z,14.53
2019-02-07T14:51:53.146Z,17.90
2019-02-07T14:54:25.216Z,17.43
2019-02-07T14:56:57.282Z,18.67
2019-02-07T14:59:29.937Z,15.53
2019-02-07T15:02:02.263Z,17.67
2019-02-07T15:04:35.181Z,18.48
2019-02-07T15:07:07.898Z,15.53
2019-02-07T15:09:40.255Z,18.37
2019-02-07T15:12:12.743Z,16.53
2019-02-07T15:14:45.408Z,11.25
2019-02-07T15:17:18.042Z,20.12
2019-02-07T15:19:50.544Z,15.07
2019-02-07T15:22:24.550Z,17.20
2019-02-07T15:24:56.910Z,17.52
2019-02-07T15:27:28.973Z,17.70
2019-02-07T15:30:01.049Z,18.70
2019-02-07T15:32:33.127Z,18.10
2019-02-07T15:35:08.009Z,15.87
2019-02-07T15:37:40.106Z,13.83
2019-02-07T15:40:17.151Z,18.20
2019-02-07T15:42:49.346Z,15.47
2019-02-07T15:45:22.389Z,18.95
2019-02-07T15:47:54.741Z,16.35
2019-02-07T15:50:37.570Z,13.80
2019-02-07T15:53:02.244Z,13.30
2019-02-07T15:55:34.409Z,15.77
2019-02-07T15:58:06.961Z,17.00
2019-02-07T16:00:51.383Z,18.25
2019-02-07T16:03:48.805Z,17.63
2019-02-07T16:06:20.933Z,17.73
2019-02-07T16:08:53.064Z,16.00
2019-02-07T16:11:25.128Z,18.20
2019-02-07T16:13:57.591Z,19.00
2019-02-07T16:16:30.013Z,17.95
2019-02-07T16:19:02.381Z,14.68
2019-02-07T16:21:34.426Z,14.13
2019-02-07T16:24:07.342Z,17.20
2019-02-07T16:26:39.693Z,15.53
2019-02-07T16:29:12.544Z,18.37
2019-02-07T16:31:44.887Z,16.97
2019-02-07T16:34:18.876Z,9.23
2019-02-07T16:36:51.563Z,16.33
2019-02-07T16:39:25.405Z,16.62
2019-02-07T16:42:05.843Z,15.73
2019-02-07T16:44:32.080Z,15.30
2019-02-07T16:47:04.773Z,14.87
2019-02-07T16:49:37.158Z,12.45
2019-02-07T16:52:09.205Z,10.00
2019-02-07T16:54:41.697Z,21.20
2019-02-07T16:57:14.418Z,20.57
2019-02-07T16:59:46.483Z,20.03
2019-02-07T17:02:19.100Z,17.95
2019-02-07T17:04:51.166Z,22.20
2019-02-07T17:07:23.311Z,17.40
2019-02-07T17:09:56.183Z,17.82
2019-02-07T17:12:28.524Z,21.05
2019-02-07T17:15:00.691Z,16.00
2019-02-07T17:17:38.151Z,18.50
2019-02-07T17:20:17.998Z,19.07
2019-02-07T17:22:50.044Z,18.87
2019-02-07T17:25:22.531Z,18.73
2019-02-07T17:27:54.977Z,15.53
2019-02-07T17:30:27.837Z,19.57
2019-02-07T17:33:00.309Z,17.62
2019-02-07T17:35:32.868Z,22.27
2019-02-07T17:38:08.663Z,18.32
2019-02-07T17:40:40.041Z,24.27
2019-02-07T17:43:12.549Z,20.23
2019-02-07T17:45:44.744Z,17.00
2019-02-07T17:48:16.785Z,22.03
2019-02-07T17:50:49.298Z,20.03
2019-02-07T17:53:22.196Z,17.62
2019-02-07T17:55:54.865Z,17.97
2019-02-07T17:58:26.966Z,15.43
2019-02-07T18:01:05.672Z,15.23
2019-02-07T18:03:37.943Z,18.07
2019-02-07T18:06:11.657Z,17.05
2019-02-07T18:08:43.957Z,16.63
2019-02-07T18:11:16.654Z,16.12
2019-02-07T18:13:49.312Z,17.32
2019-02-07T18:16:21.718Z,17.98
2019-02-07T18:18:54.435Z,17.02
2019-02-07T18:21:33.963Z,13.53
2019-02-07T18:24:00.290Z,12.90
2019-02-07T18:26:33.097Z,15.37
2019-02-07T18:29:05.659Z,17.98
2019-02-07T18:31:38.283Z,16.27
2019-02-07T18:34:10.414Z,12.83
2019-02-07T18:36:42.627Z,17.37
2019-02-07T18:39:15.241Z,16.55
2019-02-07T18:41:48.042Z,14.98
2019-02-07T18:44:20.492Z,16.55
2019-02-07T18:46:53.303Z,19.30
2019-02-07T18:49:26.795Z,17.92
2019-02-07T18:51:59.223Z,16.63
2019-02-07T18:54:31.891Z,17.37
2019-02-07T18:57:04.751Z,17.30
2019-02-07T18:59:37.438Z,14.35
2019-02-07T19:02:10.137Z,16.62
2019-02-07T19:04:42.645Z,15.18
2019-02-07T19:07:15.413Z,15.40
2019-02-07T19:09:48.259Z,19.25
2019-02-07T19:12:21.231Z,19.60
2019-02-07T19:14:53.996Z,17.02
2019-02-07T19:17:26.652Z,15.05
2019-02-07T19:19:59.628Z,15.48
2019-02-07T19:22:32.015Z,14.90
2019-02-07T19:25:04.449Z,14.50
2019-02-07T19:27:36.798Z,15.95
2019-02-07T19:30:17.481Z,10.87
2019-02-07T19:32:49.808Z,14.50
2019-02-07T19:35:22.206Z,17.17
2019-02-07T19:37:54.734Z,13.57
2019-02-07T19:40:27.082Z,15.55
2019-02-07T19:43:00.199Z,15.83
2019-02-07T19:45:33.044Z,13.05
2019-02-07T19:48:05.791Z,14.30
2019-02-07T19:50:38.208Z,8.78
2019-02-07T19:53:11.265Z,13.08
2019-02-07T19:58:14.516Z,9.20
2019-02-07T20:00:46.722Z,12.50
2019-02-07T20:03:19.146Z,13.03
2019-02-07T20:05:51.429Z,18.87
2019-02-07T20:08:24.336Z,13.30
2019-02-07T20:10:57.324Z,17.73
2019-02-07T20:13:29.699Z,16.15
2019-02-07T20:16:02.132Z,14.07
2019-02-07T20:18:34.850Z,18.87
2019-02-07T20:21:07.539Z,19.62
2019-02-07T20:23:40.012Z,16.45
2019-02-07T20:26:12.616Z,18.75
2019-02-07T20:28:44.969Z,20.23
2019-02-07T20:31:17.117Z,17.50
2019-02-07T20:33:50.189Z,15.68
2019-02-07T20:36:22.541Z,16.15
2019-02-07T20:38:55.350Z,14.77
2019-02-07T20:41:27.737Z,13.68
2019-02-07T20:44:00.180Z,14.07
2019-02-07T20:46:33.291Z,10.88
2019-02-07T20:49:05.838Z,14.30
2019-02-07T20:51:38.625Z,13.30
2019-02-07T20:54:10.997Z,13.40
2019-02-07T20:56:43.710Z,15.57
2019-02-07T20:59:16.243Z,16.70
2019-02-07T21:01:48.453Z,14.10
2019-02-07T21:04:20.934Z,12.30
2019-02-07T21:06:53.569Z,15.28
2019-02-07T21:09:25.976Z,14.98
2019-02-07T21:11:58.794Z,14.87
2019-02-07T21:14:31.122Z,16.53
2019-02-07T21:17:03.820Z,13.13
2019-02-07T21:19:36.173Z,12.50
2019-02-07T21:22:45.455Z,14.77
2019-02-07T21:25:22.814Z,13.07
2019-02-07T21:27:54.983Z,12.23
2019-02-07T21:30:30.432Z,14.83
2019-02-07T21:33:02.559Z,14.33
2019-02-07T21:35:34.640Z,15.67
2019-02-07T21:38:07.406Z,17.07
2019-02-07T21:40:39.918Z,14.28
2019-02-07T21:43:12.520Z,15.05
2019-02-07T21:45:44.913Z,14.18
2019-02-07T21:48:16.994Z,12.77
2019-02-07T21:50:49.087Z,14.73
2019-02-07T21:53:21.234Z,12.40
2019-02-07T21:55:53.773Z,19.40
2019-02-07T21:58:26.195Z,13.10
2019-02-07T22:00:58.901Z,14.40
2019-02-07T22:03:31.548Z,10.08
2019-02-07T22:06:03.930Z,12.93
2019-02-07T22:08:36.077Z,17.87
2019-02-07T22:11:08.434Z,17.92
2019-02-07T22:13:40.684Z,18.03
2019-02-07T22:16:13.036Z,15.78
2019-02-07T22:18:45.139Z,14.60
2019-02-07T22:21:17.894Z,16.02
2019-02-07T22:23:50.030Z,17.13
2019-02-07T22:26:22.107Z,16.37
2019-02-07T22:28:54.543Z,14.93
2019-02-07T22:31:27.243Z,16.67
2019-02-07T22:33:59.823Z,16.85
2019-02-07T22:36:31.888Z,15.53
2019-02-07T22:39:06.541Z,14.55
2019-02-07T22:41:38.591Z,14.60
2019-02-07T22:44:10.694Z,13.70
2019-02-07T22:46:42.793Z,12.13
2019-02-07T22:49:14.840Z,15.10
2019-02-07T22:51:46.908Z,10.43
2019-02-07T22:54:19.054Z,13.77
2019-02-07T22:56:51.472Z,21.90
2019-02-07T22:59:23.936Z,11.43
2019-02-07T23:01:58.545Z,16.50
2019-02-07T23:04:31.643Z,15.63
2019-02-07T23:07:03.693Z,13.97
2019-02-07T23:09:36.298Z,14.13
2019-02-07T23:12:08.770Z,15.77
2019-02-07T23:14:41.120Z,15.35
2019-02-07T23:17:13.160Z,15.57
2019-02-07T23:19:45.341Z,12.60
2019-02-07T23:22:18.157Z,14.75
2019-02-07T23:24:50.569Z,13.38
2019-02-07T23:27:23.023Z,10.35
2019-02-07T23:29:55.484Z,14.90
2019-02-07T23:32:27.883Z,14.47
2019-02-07T23:35:00.265Z,16.40
2019-02-07T23:37:32.979Z,13.80
2019-02-07T23:40:07.097Z,14.00
2019-02-07T23:42:39.252Z,11.83
2019-02-07T23:45:12.067Z,12.43
2019-02-07T23:47:44.482Z,14.13
2019-02-07T23:50:17.140Z,13.60
2019-02-07T23:52:49.618Z,13.00
2019-02-07T23:55:21.971Z,11.35
2019-02-07T23:57:54.276Z,13.03
